sensor_id;sensor_type;location;lat;lon;timestamp;P1;durP1;ratioP1;P2;durP2;ratioP2
5026;SDS011;2532;52.480;13.354;2022-12-18T00:01:13;51.73;;;20.60;;
5026;SDS011;2532;52.480;13.354;2022-12-18T00:03:41;42.97;;;18.20;;
5026;SDS011;2532;52.480;13.354;2022-12-18T00:06:08;44.27;;;18.97;;
5026;SDS011;2532;52.480;13.354;2022-12-18T00:08:35;49.93;;;19.80;;
5026;SDS011;2532;52.480;13.354;2022-12-18T00:11:03;46.80;;;19.07;;
5026;SDS011;2532;52.480;13.354;2022-12-18T00:13:30;45.57;;;19.40;;
5026;SDS011;2532;52.480;13.354;2022-12-18T00:16:02;45.20;;;19.43;;
5026;SDS011;2532;52.480;13.354;2022-12-18T00:18:30;46.00;;;20.07;;
5026;SDS011;2532;52.480;13.354;2022-12-18T00:20:58;60.40;;;18.53;;
5026;SDS011;2532;52.480;13.354;2022-12-18T00:23:26;45.93;;;18.10;;
5026;SDS011;2532;52.480;13.354;2022-12-18T00:25:53;45.97;;;20.10;;
5026;SDS011;2532;52.480;13.354;2022-12-18T00:28:20;52.40;;;21.03;;
5026;SDS011;2532;52.480;13.354;2022-12-18T00:30:47;60.03;;;22.73;;
5026;SDS011;2532;52.480;13.354;2022-12-18T00:33:17;48.90;;;19.10;;
5026;SDS011;2532;52.480;13.354;2022-12-18T00:35:44;51.37;;;20.90;;
5026;SDS011;2532;52.480;13.354;2022-12-18T00:38:11;48.57;;;19.73;;
5026;SDS011;2532;52.480;13.354;2022-12-18T00:40:38;52.73;;;21.63;;
5026;SDS011;2532;52.480;13.354;2022-12-18T00:43:05;52.10;;;20.10;;
5026;SDS011;2532;52.480;13.354;2022-12-18T00:45:31;50.10;;;20.33;;
5026;SDS011;2532;52.480;13.354;2022-12-18T00:47:57;49.83;;;20.80;;
5026;SDS011;2532;52.480;13.354;2022-12-18T00:50:26;53.83;;;20.40;;
5026;SDS011;2532;52.480;13.354;2022-12-18T00:52:53;48.00;;;21.70;;
5026;SDS011;2532;52.480;13.354;2022-12-18T00:55:19;49.97;;;19.70;;
5026;SDS011;2532;52.480;13.354;2022-12-18T00:57:46;51.53;;;22.00;;
5026;SDS011;2532;52.480;13.354;2022-12-18T01:00:14;43.77;;;20.17;;
5026;SDS011;2532;52.480;13.354;2022-12-18T01:02:41;59.97;;;24.03;;
5026;SDS011;2532;52.480;13.354;2022-12-18T01:05:09;53.53;;;21.30;;
5026;SDS011;2532;52.480;13.354;2022-12-18T01:07:38;57.77;;;21.10;;
5026;SDS011;2532;52.480;13.354;2022-12-18T01:10:05;60.47;;;22.80;;
5026;SDS011;2532;52.480;13.354;2022-12-18T01:12:34;56.23;;;22.17;;
5026;SDS011;2532;52.480;13.354;2022-12-18T01:15:01;46.80;;;20.87;;
5026;SDS011;2532;52.480;13.354;2022-12-18T01:17:29;46.10;;;20.47;;
5026;SDS011;2532;52.480;13.354;2022-12-18T01:19:55;53.23;;;20.90;;
5026;SDS011;2532;52.480;13.354;2022-12-18T01:22:22;57.20;;;22.93;;
5026;SDS011;2532;52.480;13.354;2022-12-18T01:24:51;51.67;;;22.80;;
5026;SDS011;2532;52.480;13.354;2022-12-18T01:27:18;57.00;;;24.80;;
5026;SDS011;2532;52.480;13.354;2022-12-18T01:29:45;56.33;;;21.63;;
5026;SDS011;2532;52.480;13.354;2022-12-18T01:32:12;50.73;;;21.00;;
5026;SDS011;2532;52.480;13.354;2022-12-18T01:34:39;58.73;;;22.50;;
5026;SDS011;2532;52.480;13.354;2022-12-18T01:37:06;54.80;;;23.10;;
5026;SDS011;2532;52.480;13.354;2022-12-18T01:39:33;47.47;;;19.80;;
5026;SDS011;2532;52.480;13.354;2022-12-18T01:42:05;55.63;;;22.23;;
5026;SDS011;2532;52.480;13.354;2022-12-18T01:47:36;55.50;;;21.27;;
5026;SDS011;2532;52.480;13.354;2022-12-18T01:50:07;56.20;;;24.30;;
5026;SDS011;2532;52.480;13.354;2022-12-18T01:52:36;66.60;;;21.87;;
5026;SDS011;2532;52.480;13.354;2022-12-18T01:55:07;53.07;;;21.80;;
5026;SDS011;2532;52.480;13.354;2022-12-18T01:57:38;56.20;;;24.00;;
5026;SDS011;2532;52.480;13.354;2022-12-18T02:00:08;63.80;;;25.30;;
5026;SDS011;2532;52.480;13.354;2022-12-18T02:02:36;54.57;;;21.70;;
5026;SDS011;2532;52.480;13.354;2022-12-18T02:05:05;52.73;;;21.00;;
5026;SDS011;2532;52.480;13.354;2022-12-18T02:07:37;51.00;;;21.60;;
5026;SDS011;2532;52.480;13.354;2022-12-18T02:10:13;59.30;;;21.87;;
5026;SDS011;2532;52.480;13.354;2022-12-18T02:12:48;52.47;;;20.37;;
5026;SDS011;2532;52.480;13.354;2022-12-18T02:15:23;54.70;;;22.07;;
5026;SDS011;2532;52.480;13.354;2022-12-18T02:17:55;58.23;;;22.00;;
5026;SDS011;2532;52.480;13.354;2022-12-18T02:20:28;60.63;;;21.87;;
5026;SDS011;2532;52.480;13.354;2022-12-18T02:23:04;51.50;;;22.70;;
5026;SDS011;2532;52.480;13.354;2022-12-18T02:25:44;54.83;;;21.07;;
5026;SDS011;2532;52.480;13.354;2022-12-18T02:28:36;59.17;;;21.57;;
5026;SDS011;2532;52.480;13.354;2022-12-18T02:31:10;49.50;;;20.70;;
5026;SDS011;2532;52.480;13.354;2022-12-18T02:33:40;52.60;;;20.57;;
5026;SDS011;2532;52.480;13.354;2022-12-18T02:36:09;50.60;;;19.83;;
5026;SDS011;2532;52.480;13.354;2022-12-18T02:38:38;55.63;;;21.70;;
5026;SDS011;2532;52.480;13.354;2022-12-18T02:41:08;49.83;;;19.40;;
5026;SDS011;2532;52.480;13.354;2022-12-18T02:43:35;59.87;;;23.23;;
5026;SDS011;2532;52.480;13.354;2022-12-18T02:48:51;57.20;;;22.43;;
5026;SDS011;2532;52.480;13.354;2022-12-18T02:51:28;48.40;;;20.50;;
5026;SDS011;2532;52.480;13.354;2022-12-18T02:54:00;59.87;;;21.47;;
5026;SDS011;2532;52.480;13.354;2022-12-18T02:56:38;48.17;;;20.57;;
5026;SDS011;2532;52.480;13.354;2022-12-18T02:59:12;51.93;;;22.27;;
5026;SDS011;2532;52.480;13.354;2022-12-18T03:01:46;49.50;;;20.07;;
5026;SDS011;2532;52.480;13.354;2022-12-18T03:04:20;42.70;;;19.30;;
5026;SDS011;2532;52.480;13.354;2022-12-18T03:06:53;50.67;;;20.47;;
5026;SDS011;2532;52.480;13.354;2022-12-18T03:09:24;47.27;;;20.93;;
5026;SDS011;2532;52.480;13.354;2022-12-18T03:12:02;49.70;;;20.37;;
5026;SDS011;2532;52.480;13.354;2022-12-18T03:14:50;50.03;;;19.87;;
5026;SDS011;2532;52.480;13.354;2022-12-18T03:17:22;48.87;;;19.10;;
5026;SDS011;2532;52.480;13.354;2022-12-18T03:19:51;47.93;;;18.80;;
5026;SDS011;2532;52.480;13.354;2022-12-18T03:22:22;47.50;;;19.00;;
5026;SDS011;2532;52.480;13.354;2022-12-18T03:24:53;47.07;;;19.83;;
5026;SDS011;2532;52.480;13.354;2022-12-18T03:27:24;49.27;;;21.57;;
5026;SDS011;2532;52.480;13.354;2022-12-18T03:29:54;54.77;;;20.57;;
5026;SDS011;2532;52.480;13.354;2022-12-18T03:32:33;51.10;;;22.90;;
5026;SDS011;2532;52.480;13.354;2022-12-18T03:35:05;54.93;;;22.53;;
5026;SDS011;2532;52.480;13.354;2022-12-18T03:37:34;60.00;;;22.47;;
5026;SDS011;2532;52.480;13.354;2022-12-18T03:40:02;52.27;;;21.60;;
5026;SDS011;2532;52.480;13.354;2022-12-18T03:42:32;54.43;;;22.57;;
5026;SDS011;2532;52.480;13.354;2022-12-18T03:45:07;52.70;;;20.53;;
5026;SDS011;2532;52.480;13.354;2022-12-18T03:47:38;66.33;;;23.43;;
5026;SDS011;2532;52.480;13.354;2022-12-18T03:50:11;59.13;;;23.40;;
5026;SDS011;2532;52.480;13.354;2022-12-18T03:52:41;53.87;;;22.67;;
5026;SDS011;2532;52.480;13.354;2022-12-18T03:55:13;61.70;;;25.17;;
5026;SDS011;2532;52.480;13.354;2022-12-18T03:57:41;61.83;;;24.30;;
5026;SDS011;2532;52.480;13.354;2022-12-18T04:00:12;61.83;;;24.00;;
5026;SDS011;2532;52.480;13.354;2022-12-18T04:02:41;68.93;;;24.50;;
5026;SDS011;2532;52.480;13.354;2022-12-18T04:05:12;72.50;;;24.10;;
5026;SDS011;2532;52.480;13.354;2022-12-18T04:07:40;66.37;;;25.10;;
5026;SDS011;2532;52.480;13.354;2022-12-18T04:10:12;67.90;;;25.37;;
5026;SDS011;2532;52.480;13.354;2022-12-18T04:12:41;75.63;;;26.27;;
5026;SDS011;2532;52.480;13.354;2022-12-18T04:15:09;75.57;;;29.00;;
5026;SDS011;2532;52.480;13.354;2022-12-18T04:17:37;78.40;;;28.00;;
5026;SDS011;2532;52.480;13.354;2022-12-18T04:20:05;75.60;;;28.47;;
5026;SDS011;2532;52.480;13.354;2022-12-18T04:22:32;74.80;;;27.80;;
5026;SDS011;2532;52.480;13.354;2022-12-18T04:25:00;74.93;;;30.13;;
5026;SDS011;2532;52.480;13.354;2022-12-18T04:27:27;93.57;;;33.60;;
5026;SDS011;2532;52.480;13.354;2022-12-18T04:29:55;88.00;;;30.30;;
5026;SDS011;2532;52.480;13.354;2022-12-18T04:32:22;92.90;;;29.40;;
5026;SDS011;2532;52.480;13.354;2022-12-18T04:34:49;89.93;;;31.90;;
5026;SDS011;2532;52.480;13.354;2022-12-18T04:37:16;90.07;;;29.93;;
5026;SDS011;2532;52.480;13.354;2022-12-18T04:39:43;104.47;;;30.50;;
5026;SDS011;2532;52.480;13.354;2022-12-18T04:42:10;101.33;;;34.50;;
5026;SDS011;2532;52.480;13.354;2022-12-18T04:44:37;105.63;;;35.60;;
5026;SDS011;2532;52.480;13.354;2022-12-18T04:47:05;90.83;;;31.20;;
5026;SDS011;2532;52.480;13.354;2022-12-18T04:49:32;92.33;;;30.40;;
5026;SDS011;2532;52.480;13.354;2022-12-18T04:51:59;85.70;;;29.63;;
5026;SDS011;2532;52.480;13.354;2022-12-18T04:54:26;92.07;;;30.63;;
5026;SDS011;2532;52.480;13.354;2022-12-18T04:56:53;91.10;;;29.87;;
5026;SDS011;2532;52.480;13.354;2022-12-18T04:59:20;100.63;;;31.10;;
5026;SDS011;2532;52.480;13.354;2022-12-18T05:01:47;100.60;;;33.47;;
5026;SDS011;2532;52.480;13.354;2022-12-18T05:04:15;83.93;;;29.43;;
5026;SDS011;2532;52.480;13.354;2022-12-18T05:06:42;83.47;;;29.90;;
5026;SDS011;2532;52.480;13.354;2022-12-18T05:09:09;92.47;;;32.87;;
5026;SDS011;2532;52.480;13.354;2022-12-18T05:11:36;83.37;;;30.87;;
5026;SDS011;2532;52.480;13.354;2022-12-18T05:14:05;71.73;;;27.10;;
5026;SDS011;2532;52.480;13.354;2022-12-18T05:16:31;80.43;;;30.00;;
5026;SDS011;2532;52.480;13.354;2022-12-18T05:18:59;100.43;;;32.67;;
5026;SDS011;2532;52.480;13.354;2022-12-18T05:21:27;83.77;;;28.73;;
5026;SDS011;2532;52.480;13.354;2022-12-18T05:23:54;81.90;;;30.03;;
5026;SDS011;2532;52.480;13.354;2022-12-18T05:26:23;78.60;;;28.37;;
5026;SDS011;2532;52.480;13.354;2022-12-18T05:28:50;84.00;;;29.40;;
5026;SDS011;2532;52.480;13.354;2022-12-18T05:31:17;85.83;;;28.20;;
5026;SDS011;2532;52.480;13.354;2022-12-18T05:33:44;80.13;;;30.07;;
5026;SDS011;2532;52.480;13.354;2022-12-18T05:36:11;90.13;;;30.97;;
5026;SDS011;2532;52.480;13.354;2022-12-18T05:38:39;88.63;;;31.40;;
5026;SDS011;2532;52.480;13.354;2022-12-18T05:41:06;83.23;;;28.93;;
5026;SDS011;2532;52.480;13.354;2022-12-18T05:43:34;75.07;;;30.80;;
5026;SDS011;2532;52.480;13.354;2022-12-18T05:46:03;84.20;;;28.70;;
5026;SDS011;2532;52.480;13.354;2022-12-18T05:48:30;84.13;;;28.13;;
5026;SDS011;2532;52.480;13.354;2022-12-18T05:51:02;89.97;;;31.13;;
5026;SDS011;2532;52.480;13.354;2022-12-18T05:53:31;96.47;;;33.17;;
5026;SDS011;2532;52.480;13.354;2022-12-18T05:56:00;98.93;;;31.90;;
5026;SDS011;2532;52.480;13.354;2022-12-18T05:58:28;102.13;;;31.73;;
5026;SDS011;2532;52.480;13.354;2022-12-18T06:00:55;98.90;;;31.17;;
5026;SDS011;2532;52.480;13.354;2022-12-18T06:03:23;88.70;;;31.40;;
5026;SDS011;2532;52.480;13.354;2022-12-18T06:05:50;89.67;;;32.40;;
5026;SDS011;2532;52.480;13.354;2022-12-18T06:08:17;95.80;;;31.17;;
5026;SDS011;2532;52.480;13.354;2022-12-18T06:10:49;89.10;;;31.50;;
5026;SDS011;2532;52.480;13.354;2022-12-18T06:13:19;92.17;;;30.67;;
5026;SDS011;2532;52.480;13.354;2022-12-18T06:15:46;96.73;;;34.17;;
5026;SDS011;2532;52.480;13.354;2022-12-18T06:18:12;100.30;;;34.60;;
5026;SDS011;2532;52.480;13.354;2022-12-18T06:20:42;99.10;;;33.37;;
5026;SDS011;2532;52.480;13.354;2022-12-18T06:23:09;92.90;;;32.40;;
5026;SDS011;2532;52.480;13.354;2022-12-18T06:25:37;91.30;;;30.80;;
5026;SDS011;2532;52.480;13.354;2022-12-18T06:28:05;90.57;;;31.17;;
5026;SDS011;2532;52.480;13.354;2022-12-18T06:30:33;88.07;;;30.67;;
5026;SDS011;2532;52.480;13.354;2022-12-18T06:33:01;83.10;;;29.03;;
5026;SDS011;2532;52.480;13.354;2022-12-18T06:35:28;83.90;;;31.10;;
5026;SDS011;2532;52.480;13.354;2022-12-18T06:37:55;86.97;;;30.27;;
5026;SDS011;2532;52.480;13.354;2022-12-18T06:40:22;89.07;;;31.00;;
5026;SDS011;2532;52.480;13.354;2022-12-18T06:42:49;89.33;;;29.70;;
5026;SDS011;2532;52.480;13.354;2022-12-18T06:45:15;91.57;;;33.30;;
5026;SDS011;2532;52.480;13.354;2022-12-18T06:47:44;90.30;;;31.40;;
5026;SDS011;2532;52.480;13.354;2022-12-18T06:50:11;78.33;;;31.17;;
5026;SDS011;2532;52.480;13.354;2022-12-18T06:52:38;100.23;;;32.10;;
5026;SDS011;2532;52.480;13.354;2022-12-18T06:55:10;96.23;;;32.63;;
5026;SDS011;2532;52.480;13.354;2022-12-18T06:57:37;83.50;;;29.63;;
5026;SDS011;2532;52.480;13.354;2022-12-18T07:00:05;80.80;;;30.80;;
5026;SDS011;2532;52.480;13.354;2022-12-18T07:02:33;86.07;;;28.90;;
5026;SDS011;2532;52.480;13.354;2022-12-18T07:05:02;87.77;;;32.47;;
5026;SDS011;2532;52.480;13.354;2022-12-18T07:07:33;88.50;;;30.80;;
5026;SDS011;2532;52.480;13.354;2022-12-18T07:10:00;73.07;;;28.80;;
5026;SDS011;2532;52.480;13.354;2022-12-18T07:12:27;69.00;;;25.73;;
5026;SDS011;2532;52.480;13.354;2022-12-18T07:14:55;69.67;;;27.40;;
5026;SDS011;2532;52.480;13.354;2022-12-18T07:17:22;74.73;;;28.30;;
5026;SDS011;2532;52.480;13.354;2022-12-18T07:19:49;68.53;;;26.73;;
5026;SDS011;2532;52.480;13.354;2022-12-18T07:22:17;67.50;;;25.67;;
5026;SDS011;2532;52.480;13.354;2022-12-18T07:24:49;62.40;;;25.70;;
5026;SDS011;2532;52.480;13.354;2022-12-18T07:27:16;70.30;;;25.00;;
5026;SDS011;2532;52.480;13.354;2022-12-18T07:29:43;71.80;;;27.67;;
5026;SDS011;2532;52.480;13.354;2022-12-18T07:32:11;61.07;;;26.43;;
5026;SDS011;2532;52.480;13.354;2022-12-18T07:34:37;69.53;;;25.30;;
5026;SDS011;2532;52.480;13.354;2022-12-18T07:37:04;55.97;;;23.60;;
5026;SDS011;2532;52.480;13.354;2022-12-18T07:39:33;61.00;;;24.60;;
5026;SDS011;2532;52.480;13.354;2022-12-18T07:42:00;63.10;;;23.20;;
5026;SDS011;2532;52.480;13.354;2022-12-18T07:44:44;54.77;;;24.03;;
5026;SDS011;2532;52.480;13.354;2022-12-18T07:47:11;57.57;;;22.20;;
5026;SDS011;2532;52.480;13.354;2022-12-18T07:49:38;59.10;;;23.87;;
5026;SDS011;2532;52.480;13.354;2022-12-18T07:52:05;56.13;;;22.63;;
5026;SDS011;2532;52.480;13.354;2022-12-18T07:54:33;63.17;;;24.07;;
5026;SDS011;2532;52.480;13.354;2022-12-18T07:57:00;58.10;;;23.83;;
5026;SDS011;2532;52.480;13.354;2022-12-18T07:59:26;66.87;;;25.27;;
5026;SDS011;2532;52.480;13.354;2022-12-18T08:01:53;57.33;;;25.10;;
5026;SDS011;2532;52.480;13.354;2022-12-18T08:04:24;62.60;;;22.37;;
5026;SDS011;2532;52.480;13.354;2022-12-18T08:06:51;82.43;;;26.23;;
5026;SDS011;2532;52.480;13.354;2022-12-18T08:09:18;68.93;;;25.20;;
5026;SDS011;2532;52.480;13.354;2022-12-18T08:11:46;70.33;;;26.07;;
5026;SDS011;2532;52.480;13.354;2022-12-18T08:14:13;66.37;;;25.47;;
5026;SDS011;2532;52.480;13.354;2022-12-18T08:16:40;66.67;;;25.40;;
5026;SDS011;2532;52.480;13.354;2022-12-18T08:19:10;58.00;;;23.60;;
5026;SDS011;2532;52.480;13.354;2022-12-18T08:21:37;79.83;;;26.37;;
5026;SDS011;2532;52.480;13.354;2022-12-18T08:24:08;62.63;;;24.27;;
5026;SDS011;2532;52.480;13.354;2022-12-18T08:26:35;59.63;;;23.27;;
5026;SDS011;2532;52.480;13.354;2022-12-18T08:29:04;58.93;;;24.60;;
5026;SDS011;2532;52.480;13.354;2022-12-18T08:31:31;62.27;;;24.63;;
5026;SDS011;2532;52.480;13.354;2022-12-18T08:33:57;64.60;;;24.33;;
5026;SDS011;2532;52.480;13.354;2022-12-18T08:36:24;65.77;;;24.73;;
5026;SDS011;2532;52.480;13.354;2022-12-18T08:38:51;64.53;;;23.80;;
5026;SDS011;2532;52.480;13.354;2022-12-18T08:41:18;63.80;;;24.70;;
5026;SDS011;2532;52.480;13.354;2022-12-18T08:43:46;64.03;;;24.70;;
5026;SDS011;2532;52.480;13.354;2022-12-18T08:46:33;67.83;;;26.07;;
5026;SDS011;2532;52.480;13.354;2022-12-18T08:49:01;60.67;;;24.80;;
5026;SDS011;2532;52.480;13.354;2022-12-18T08:51:29;58.30;;;21.73;;
5026;SDS011;2532;52.480;13.354;2022-12-18T08:53:59;61.97;;;23.80;;
5026;SDS011;2532;52.480;13.354;2022-12-18T08:56:26;65.03;;;23.73;;
5026;SDS011;2532;52.480;13.354;2022-12-18T08:58:53;55.47;;;22.50;;
5026;SDS011;2532;52.480;13.354;2022-12-18T09:01:20;62.40;;;25.00;;
5026;SDS011;2532;52.480;13.354;2022-12-18T09:03:49;55.07;;;21.10;;
5026;SDS011;2532;52.480;13.354;2022-12-18T09:06:17;64.00;;;24.23;;
5026;SDS011;2532;52.480;13.354;2022-12-18T09:08:45;50.97;;;22.10;;
5026;SDS011;2532;52.480;13.354;2022-12-18T09:11:13;55.23;;;22.40;;
5026;SDS011;2532;52.480;13.354;2022-12-18T09:13:42;55.57;;;20.77;;
5026;SDS011;2532;52.480;13.354;2022-12-18T09:16:09;56.90;;;21.87;;
5026;SDS011;2532;52.480;13.354;2022-12-18T09:18:36;53.50;;;21.17;;
5026;SDS011;2532;52.480;13.354;2022-12-18T09:21:10;52.77;;;20.53;;
5026;SDS011;2532;52.480;13.354;2022-12-18T09:23:38;48.80;;;21.03;;
5026;SDS011;2532;52.480;13.354;2022-12-18T09:26:05;53.60;;;22.50;;
5026;SDS011;2532;52.480;13.354;2022-12-18T09:28:32;50.80;;;22.57;;
5026;SDS011;2532;52.480;13.354;2022-12-18T09:30:58;51.30;;;22.00;;
5026;SDS011;2532;52.480;13.354;2022-12-18T09:33:30;53.67;;;22.60;;
5026;SDS011;2532;52.480;13.354;2022-12-18T09:35:57;58.87;;;22.90;;
5026;SDS011;2532;52.480;13.354;2022-12-18T09:38:28;63.07;;;23.27;;
5026;SDS011;2532;52.480;13.354;2022-12-18T09:40:56;51.13;;;22.67;;
5026;SDS011;2532;52.480;13.354;2022-12-18T09:43:26;55.90;;;22.33;;
5026;SDS011;2532;52.480;13.354;2022-12-18T09:46:01;46.23;;;22.10;;
5026;SDS011;2532;52.480;13.354;2022-12-18T09:48:31;54.00;;;23.20;;
5026;SDS011;2532;52.480;13.354;2022-12-18T09:51:02;52.90;;;21.50;;
5026;SDS011;2532;52.480;13.354;2022-12-18T09:53:36;57.37;;;21.13;;
5026;SDS011;2532;52.480;13.354;2022-12-18T09:56:04;50.43;;;21.70;;
5026;SDS011;2532;52.480;13.354;2022-12-18T09:58:33;50.63;;;21.27;;
5026;SDS011;2532;52.480;13.354;2022-12-18T10:01:08;49.60;;;20.70;;
5026;SDS011;2532;52.480;13.354;2022-12-18T10:03:37;43.57;;;19.50;;
5026;SDS011;2532;52.480;13.354;2022-12-18T10:06:05;48.83;;;21.33;;
5026;SDS011;2532;52.480;13.354;2022-12-18T10:08:39;53.40;;;23.10;;
5026;SDS011;2532;52.480;13.354;2022-12-18T10:11:19;44.73;;;17.00;;
5026;SDS011;2532;52.480;13.354;2022-12-18T10:13:52;49.67;;;21.47;;
5026;SDS011;2532;52.480;13.354;2022-12-18T10:16:23;55.17;;;21.60;;
5026;SDS011;2532;52.480;13.354;2022-12-18T10:19:03;41.00;;;15.60;;
5026;SDS011;2532;52.480;13.354;2022-12-18T10:21:45;59.70;;;22.43;;
5026;SDS011;2532;52.480;13.354;2022-12-18T10:24:20;50.63;;;20.43;;
5026;SDS011;2532;52.480;13.354;2022-12-18T10:26:52;46.60;;;20.23;;
5026;SDS011;2532;52.480;13.354;2022-12-18T10:29:26;36.90;;;15.50;;
5026;SDS011;2532;52.480;13.354;2022-12-18T10:31:55;52.03;;;22.17;;
5026;SDS011;2532;52.480;13.354;2022-12-18T10:34:23;50.80;;;20.87;;
5026;SDS011;2532;52.480;13.354;2022-12-18T10:36:50;41.77;;;16.50;;
5026;SDS011;2532;52.480;13.354;2022-12-18T10:39:18;51.00;;;22.53;;
5026;SDS011;2532;52.480;13.354;2022-12-18T10:41:51;50.57;;;22.03;;
5026;SDS011;2532;52.480;13.354;2022-12-18T10:44:19;49.33;;;19.73;;
5026;SDS011;2532;52.480;13.354;2022-12-18T10:46:47;46.33;;;19.77;;
5026;SDS011;2532;52.480;13.354;2022-12-18T10:49:21;58.53;;;22.27;;
5026;SDS011;2532;52.480;13.354;2022-12-18T10:51:49;53.40;;;21.80;;
5026;SDS011;2532;52.480;13.354;2022-12-18T10:54:18;46.57;;;18.87;;
5026;SDS011;2532;52.480;13.354;2022-12-18T10:56:49;53.47;;;23.47;;
5026;SDS011;2532;52.480;13.354;2022-12-18T10:59:17;50.07;;;18.10;;
5026;SDS011;2532;52.480;13.354;2022-12-18T11:01:48;53.47;;;22.50;;
5026;SDS011;2532;52.480;13.354;2022-12-18T11:04:17;54.93;;;19.37;;
5026;SDS011;2532;52.480;13.354;2022-12-18T11:06:53;53.57;;;23.17;;
5026;SDS011;2532;52.480;13.354;2022-12-18T11:09:24;61.33;;;26.30;;
5026;SDS011;2532;52.480;13.354;2022-12-18T11:11:53;55.90;;;23.87;;
5026;SDS011;2532;52.480;13.354;2022-12-18T11:14:22;50.60;;;21.57;;
5026;SDS011;2532;52.480;13.354;2022-12-18T11:16:51;53.23;;;21.83;;
5026;SDS011;2532;52.480;13.354;2022-12-18T11:19:21;51.13;;;21.90;;
5026;SDS011;2532;52.480;13.354;2022-12-18T11:21:58;60.87;;;21.17;;
5026;SDS011;2532;52.480;13.354;2022-12-18T11:24:28;37.00;;;16.27;;
5026;SDS011;2532;52.480;13.354;2022-12-18T11:26:57;51.67;;;18.60;;
5026;SDS011;2532;52.480;13.354;2022-12-18T11:29:33;48.67;;;19.70;;
5026;SDS011;2532;52.480;13.354;2022-12-18T11:32:23;38.93;;;15.40;;
5026;SDS011;2532;52.480;13.354;2022-12-18T11:34:59;39.03;;;15.07;;
5026;SDS011;2532;52.480;13.354;2022-12-18T11:37:30;44.13;;;18.10;;
5026;SDS011;2532;52.480;13.354;2022-12-18T11:40:01;48.07;;;20.37;;
5026;SDS011;2532;52.480;13.354;2022-12-18T11:42:35;33.17;;;14.40;;
5026;SDS011;2532;52.480;13.354;2022-12-18T11:45:08;36.93;;;15.43;;
5026;SDS011;2532;52.480;13.354;2022-12-18T11:47:57;43.40;;;14.97;;
5026;SDS011;2532;52.480;13.354;2022-12-18T11:50:30;37.93;;;13.80;;
5026;SDS011;2532;52.480;13.354;2022-12-18T11:53:07;40.57;;;18.23;;
5026;SDS011;2532;52.480;13.354;2022-12-18T11:55:39;43.43;;;17.47;;
5026;SDS011;2532;52.480;13.354;2022-12-18T11:58:15;47.07;;;19.90;;
5026;SDS011;2532;52.480;13.354;2022-12-18T12:00:56;41.60;;;16.50;;
5026;SDS011;2532;52.480;13.354;2022-12-18T12:03:47;36.10;;;15.80;;
5026;SDS011;2532;52.480;13.354;2022-12-18T12:06:31;36.23;;;14.23;;
5026;SDS011;2532;52.480;13.354;2022-12-18T12:09:07;38.23;;;16.07;;
5026;SDS011;2532;52.480;13.354;2022-12-18T12:11:46;45.77;;;19.10;;
5026;SDS011;2532;52.480;13.354;2022-12-18T12:14:25;39.97;;;17.43;;
5026;SDS011;2532;52.480;13.354;2022-12-18T12:17:03;29.13;;;13.07;;
5026;SDS011;2532;52.480;13.354;2022-12-18T12:19:39;38.90;;;14.97;;
5026;SDS011;2532;52.480;13.354;2022-12-18T12:22:13;41.07;;;18.60;;
5026;SDS011;2532;52.480;13.354;2022-12-18T12:24:56;37.53;;;17.70;;
5026;SDS011;2532;52.480;13.354;2022-12-18T12:27:36;37.10;;;16.37;;
5026;SDS011;2532;52.480;13.354;2022-12-18T12:30:11;34.90;;;13.90;;
5026;SDS011;2532;52.480;13.354;2022-12-18T12:32:47;39.57;;;16.50;;
5026;SDS011;2532;52.480;13.354;2022-12-18T12:35:29;41.33;;;16.63;;
5026;SDS011;2532;52.480;13.354;2022-12-18T12:38:06;40.57;;;14.90;;
5026;SDS011;2532;52.480;13.354;2022-12-18T12:40:38;34.07;;;16.00;;
5026;SDS011;2532;52.480;13.354;2022-12-18T12:43:12;39.97;;;17.70;;
5026;SDS011;2532;52.480;13.354;2022-12-18T12:45:47;30.13;;;14.60;;
5026;SDS011;2532;52.480;13.354;2022-12-18T12:48:20;37.97;;;15.77;;
5026;SDS011;2532;52.480;13.354;2022-12-18T12:50:57;37.13;;;15.80;;
5026;SDS011;2532;52.480;13.354;2022-12-18T12:53:28;42.70;;;16.50;;
5026;SDS011;2532;52.480;13.354;2022-12-18T12:56:00;39.10;;;17.67;;
5026;SDS011;2532;52.480;13.354;2022-12-18T12:58:31;45.03;;;17.57;;
5026;SDS011;2532;52.480;13.354;2022-12-18T13:01:09;42.40;;;17.93;;
5026;SDS011;2532;52.480;13.354;2022-12-18T13:03:48;39.37;;;15.97;;
5026;SDS011;2532;52.480;13.354;2022-12-18T13:06:23;36.70;;;16.37;;
5026;SDS011;2532;52.480;13.354;2022-12-18T13:08:59;35.93;;;15.27;;
5026;SDS011;2532;52.480;13.354;2022-12-18T13:11:38;33.40;;;14.87;;
5026;SDS011;2532;52.480;13.354;2022-12-18T13:14:27;29.13;;;14.17;;
5026;SDS011;2532;52.480;13.354;2022-12-18T13:19:42;40.57;;;15.77;;
5026;SDS011;2532;52.480;13.354;2022-12-18T13:22:20;39.67;;;17.23;;
5026;SDS011;2532;52.480;13.354;2022-12-18T13:24:47;42.40;;;20.70;;
5026;SDS011;2532;52.480;13.354;2022-12-18T13:36:12;44.93;;;20.07;;
5026;SDS011;2532;52.480;13.354;2022-12-18T13:38:44;44.03;;;20.60;;
5026;SDS011;2532;52.480;13.354;2022-12-18T13:41:23;43.57;;;17.30;;
5026;SDS011;2532;52.480;13.354;2022-12-18T13:43:53;40.40;;;18.53;;
5026;SDS011;2532;52.480;13.354;2022-12-18T13:46:25;42.40;;;19.17;;
5026;SDS011;2532;52.480;13.354;2022-12-18T13:48:56;40.33;;;18.50;;
5026;SDS011;2532;52.480;13.354;2022-12-18T13:51:26;42.27;;;20.73;;
5026;SDS011;2532;52.480;13.354;2022-12-18T13:53:55;50.77;;;25.00;;
5026;SDS011;2532;52.480;13.354;2022-12-18T13:56:25;45.03;;;19.00;;
5026;SDS011;2532;52.480;13.354;2022-12-18T13:59:04;45.80;;;22.70;;
5026;SDS011;2532;52.480;13.354;2022-12-18T14:01:42;43.10;;;23.47;;
5026;SDS011;2532;52.480;13.354;2022-12-18T14:04:11;37.57;;;17.40;;
5026;SDS011;2532;52.480;13.354;2022-12-18T14:06:43;41.90;;;18.57;;
5026;SDS011;2532;52.480;13.354;2022-12-18T14:09:13;39.73;;;18.37;;
5026;SDS011;2532;52.480;13.354;2022-12-18T14:11:45;41.87;;;20.87;;
5026;SDS011;2532;52.480;13.354;2022-12-18T14:14:13;47.87;;;22.70;;
5026;SDS011;2532;52.480;13.354;2022-12-18T14:16:43;57.30;;;28.67;;
5026;SDS011;2532;52.480;13.354;2022-12-18T14:19:12;53.63;;;27.60;;
5026;SDS011;2532;52.480;13.354;2022-12-18T14:21:45;56.90;;;27.33;;
5026;SDS011;2532;52.480;13.354;2022-12-18T14:24:14;57.50;;;27.27;;
5026;SDS011;2532;52.480;13.354;2022-12-18T14:26:42;65.43;;;29.17;;
5026;SDS011;2532;52.480;13.354;2022-12-18T14:29:23;59.17;;;29.37;;
5026;SDS011;2532;52.480;13.354;2022-12-18T14:34:39;67.40;;;28.03;;
5026;SDS011;2532;52.480;13.354;2022-12-18T14:37:07;71.37;;;33.73;;
5026;SDS011;2532;52.480;13.354;2022-12-18T14:39:36;65.20;;;25.93;;
5026;SDS011;2532;52.480;13.354;2022-12-18T14:42:03;56.83;;;28.37;;
5026;SDS011;2532;52.480;13.354;2022-12-18T14:44:31;63.10;;;23.83;;
5026;SDS011;2532;52.480;13.354;2022-12-18T14:46:58;40.87;;;18.43;;
5026;SDS011;2532;52.480;13.354;2022-12-18T14:49:29;43.60;;;21.90;;
5026;SDS011;2532;52.480;13.354;2022-12-18T14:52:00;47.70;;;23.33;;
5026;SDS011;2532;52.480;13.354;2022-12-18T14:54:29;42.37;;;23.70;;
5026;SDS011;2532;52.480;13.354;2022-12-18T14:56:58;48.80;;;25.80;;
5026;SDS011;2532;52.480;13.354;2022-12-18T14:59:28;39.13;;;17.90;;
5026;SDS011;2532;52.480;13.354;2022-12-18T15:02:02;39.80;;;19.97;;
5026;SDS011;2532;52.480;13.354;2022-12-18T15:04:38;38.07;;;17.97;;
5026;SDS011;2532;52.480;13.354;2022-12-18T15:07:09;39.03;;;19.67;;
5026;SDS011;2532;52.480;13.354;2022-12-18T15:09:40;38.40;;;19.70;;
5026;SDS011;2532;52.480;13.354;2022-12-18T15:12:19;39.40;;;18.00;;